Aviation Digital Data Service (ADDS)

Output produced by METARs form (1425 UTC 28 April 2015)
found at http://aviationweather.gov/adds/metars/
 
KRIC 281206Z 2812/2912 34012KT P6SM FEW070 
     FM281600 34012G20KT P6SM SCT060 
     FM282200 33009KT P6SM SCT250